sensor_id;sensor_type;location;lat;lon;timestamp;pressure;altitude;pressure_sealevel;temperature;humidity
47763;BME280;33526;42.690;23.322;2022-12-10T00:02:27;94358.78;;;8.06;89.25
47763;BME280;33526;42.690;23.322;2022-12-10T00:04:54;94444.00;;;8.65;89.31
47763;BME280;33526;42.690;23.322;2022-12-10T00:07:28;94425.31;;;8.56;89.21
47763;BME280;33526;42.690;23.322;2022-12-10T00:09:53;94383.31;;;8.26;89.27
47763;BME280;33526;42.690;23.322;2022-12-10T00:12:22;94390.13;;;8.25;89.33
47763;BME280;33526;42.690;23.322;2022-12-10T00:14:48;94338.31;;;7.85;89.31
47763;BME280;33526;42.690;23.322;2022-12-10T00:17:15;94422.75;;;8.43;88.91
47763;BME280;33526;42.690;23.322;2022-12-10T00:19:46;94277.78;;;7.52;89.18
47763;BME280;33526;42.690;23.322;2022-12-10T00:22:12;94318.53;;;7.74;89.39
47763;BME280;33526;42.690;23.322;2022-12-10T00:24:40;94254.22;;;7.38;89.40
47763;BME280;33526;42.690;23.322;2022-12-10T00:27:07;94372.53;;;8.10;89.49
47763;BME280;33526;42.690;23.322;2022-12-10T00:29:33;94330.25;;;7.87;89.58
47763;BME280;33526;42.690;23.322;2022-12-10T00:31:58;94401.22;;;8.34;90.05
47763;BME280;33526;42.690;23.322;2022-12-10T00:34:24;94407.69;;;8.40;89.69
47763;BME280;33526;42.690;23.322;2022-12-10T00:36:50;94413.34;;;8.22;90.19
47763;BME280;33526;42.690;23.322;2022-12-10T00:39:17;94355.56;;;7.98;89.82
47763;BME280;33526;42.690;23.322;2022-12-10T00:41:43;94446.84;;;8.55;89.99
47763;BME280;33526;42.690;23.322;2022-12-10T00:44:09;94333.34;;;7.89;89.94
47763;BME280;33526;42.690;23.322;2022-12-10T00:46:36;94446.34;;;8.66;89.85
47763;BME280;33526;42.690;23.322;2022-12-10T00:49:02;94441.41;;;8.61;90.33
47763;BME280;33526;42.690;23.322;2022-12-10T00:51:29;94421.78;;;8.46;89.94
47763;BME280;33526;42.690;23.322;2022-12-10T00:53:56;94418.69;;;8.44;89.95
47763;BME280;33526;42.690;23.322;2022-12-10T00:56:23;94447.09;;;8.67;89.79
47763;BME280;33526;42.690;23.322;2022-12-10T00:58:50;94450.06;;;8.63;89.70
47763;BME280;33526;42.690;23.322;2022-12-10T01:01:27;94447.88;;;8.67;89.52
47763;BME280;33526;42.690;23.322;2022-12-10T01:03:56;94440.41;;;8.73;89.32
47763;BME280;33526;42.690;23.322;2022-12-10T01:06:30;94358.28;;;8.17;88.88
47763;BME280;33526;42.690;23.322;2022-12-10T01:08:58;94400.47;;;8.43;89.28
47763;BME280;33526;42.690;23.322;2022-12-10T01:11:28;94422.78;;;8.67;88.99
47763;BME280;33526;42.690;23.322;2022-12-10T01:13:54;94452.66;;;9.00;88.03
47763;BME280;33526;42.690;23.322;2022-12-10T01:16:21;94425.16;;;8.84;88.44
47763;BME280;33526;42.690;23.322;2022-12-10T01:18:54;94415.97;;;8.68;88.99
47763;BME280;33526;42.690;23.322;2022-12-10T01:21:20;94363.44;;;8.52;88.44
47763;BME280;33526;42.690;23.322;2022-12-10T01:23:49;94352.88;;;8.56;87.94
47763;BME280;33526;42.690;23.322;2022-12-10T01:26:17;94343.03;;;8.46;88.00
47763;BME280;33526;42.690;23.322;2022-12-10T01:28:43;94401.16;;;8.86;87.84
47763;BME280;33526;42.690;23.322;2022-12-10T01:31:12;94417.66;;;8.99;87.95
47763;BME280;33526;42.690;23.322;2022-12-10T01:33:38;94392.69;;;8.80;88.27
47763;BME280;33526;42.690;23.322;2022-12-10T01:36:08;94316.56;;;8.41;88.22
47763;BME280;33526;42.690;23.322;2022-12-10T01:38:35;94309.50;;;8.31;87.42
47763;BME280;33526;42.690;23.322;2022-12-10T01:41:01;94411.78;;;8.97;87.72
47763;BME280;33526;42.690;23.322;2022-12-10T01:43:27;94394.44;;;8.93;88.15
47763;BME280;33526;42.690;23.322;2022-12-10T01:45:53;94313.09;;;8.22;87.76
47763;BME280;33526;42.690;23.322;2022-12-10T01:48:19;94327.34;;;8.57;87.82
47763;BME280;33526;42.690;23.322;2022-12-10T01:50:45;94409.06;;;9.12;87.05
47763;BME280;33526;42.690;23.322;2022-12-10T01:53:12;94397.31;;;9.08;87.07
47763;BME280;33526;42.690;23.322;2022-12-10T01:55:47;94420.84;;;9.31;86.71
47763;BME280;33526;42.690;23.322;2022-12-10T01:58:16;94311.72;;;8.51;86.44
47763;BME280;33526;42.690;23.322;2022-12-10T02:00:52;94304.94;;;8.52;86.59
47763;BME280;33526;42.690;23.322;2022-12-10T02:04:17;94361.06;;;8.84;87.26
47763;BME280;33526;42.690;23.322;2022-12-10T02:06:53;94419.78;;;9.28;87.96
47763;BME280;33526;42.690;23.322;2022-12-10T02:09:48;94418.19;;;9.12;88.52
47763;BME280;33526;42.690;23.322;2022-12-10T02:12:40;94412.63;;;8.88;90.53
47763;BME280;33526;42.690;23.322;2022-12-10T02:15:42;94319.59;;;8.19;90.90
47763;BME280;33526;42.690;23.322;2022-12-10T02:18:17;94350.47;;;8.39;91.61
47763;BME280;33526;42.690;23.322;2022-12-10T02:20:49;94357.50;;;8.59;91.39
47763;BME280;33526;42.690;23.322;2022-12-10T02:23:27;94378.94;;;8.77;91.31
47763;BME280;33526;42.690;23.322;2022-12-10T02:29:16;94299.63;;;8.20;91.60
47763;BME280;33526;42.690;23.322;2022-12-10T02:31:46;94348.13;;;8.71;91.48
47763;BME280;33526;42.690;23.322;2022-12-10T02:34:14;94261.53;;;8.02;91.23
47763;BME280;33526;42.690;23.322;2022-12-10T02:36:47;94393.22;;;8.94;91.60
47763;BME280;33526;42.690;23.322;2022-12-10T02:39:18;94363.78;;;8.93;91.24
47763;BME280;33526;42.690;23.322;2022-12-10T02:41:52;94334.38;;;8.68;91.21
47763;BME280;33526;42.690;23.322;2022-12-10T02:44:19;94291.34;;;8.45;90.96
47763;BME280;33526;42.690;23.322;2022-12-10T02:46:48;94268.53;;;8.22;91.54
47763;BME280;33526;42.690;23.322;2022-12-10T02:49:16;94306.56;;;8.58;91.68
47763;BME280;33526;42.690;23.322;2022-12-10T02:51:42;94359.28;;;8.95;91.03
47763;BME280;33526;42.690;23.322;2022-12-10T03:08:15;94385.56;;;9.43;90.42
47763;BME280;33526;42.690;23.322;2022-12-10T03:11:03;94351.25;;;9.12;90.80
47763;BME280;33526;42.690;23.322;2022-12-10T03:13:39;94294.31;;;8.65;91.61
47763;BME280;33526;42.690;23.322;2022-12-10T03:16:05;94286.88;;;8.62;92.33
47763;BME280;33526;42.690;23.322;2022-12-10T03:18:34;94360.59;;;9.09;92.68
47763;BME280;33526;42.690;23.322;2022-12-10T03:21:04;94212.84;;;8.22;92.04
47763;BME280;33526;42.690;23.322;2022-12-10T03:23:33;94370.22;;;9.23;92.18
47763;BME280;33526;42.690;23.322;2022-12-10T03:26:00;94326.31;;;8.94;91.32
47763;BME280;33526;42.690;23.322;2022-12-10T03:28:26;94252.34;;;8.45;91.07
47763;BME280;33526;42.690;23.322;2022-12-10T03:30:53;94233.47;;;8.39;91.65
47763;BME280;33526;42.690;23.322;2022-12-10T03:33:19;94356.66;;;9.16;91.67
47763;BME280;33526;42.690;23.322;2022-12-10T03:35:45;94336.94;;;9.19;91.80
47763;BME280;33526;42.690;23.322;2022-12-10T03:38:14;94315.16;;;8.94;92.34
47763;BME280;33526;42.690;23.322;2022-12-10T03:40:39;94313.97;;;8.86;92.14
47763;BME280;33526;42.690;23.322;2022-12-10T03:43:05;94310.53;;;8.91;91.84
47763;BME280;33526;42.690;23.322;2022-12-10T03:45:30;94253.81;;;8.55;92.13
47763;BME280;33526;42.690;23.322;2022-12-10T03:47:56;94306.91;;;8.99;91.58
47763;BME280;33526;42.690;23.322;2022-12-10T03:50:22;94338.50;;;9.21;91.93
47763;BME280;33526;42.690;23.322;2022-12-10T03:52:47;94325.22;;;9.15;92.47
47763;BME280;33526;42.690;23.322;2022-12-10T03:55:13;94266.66;;;8.76;93.57
47763;BME280;33526;42.690;23.322;2022-12-10T03:57:39;94304.38;;;8.87;94.02
47763;BME280;33526;42.690;23.322;2022-12-10T04:00:06;94337.16;;;9.31;94.48
47763;BME280;33526;42.690;23.322;2022-12-10T04:02:33;94285.31;;;8.85;95.88
47763;BME280;33526;42.690;23.322;2022-12-10T04:04:59;94296.47;;;8.85;95.80
47763;BME280;33526;42.690;23.322;2022-12-10T04:07:25;94347.72;;;9.27;96.21
47763;BME280;33526;42.690;23.322;2022-12-10T04:09:50;94227.56;;;8.47;95.94
47763;BME280;33526;42.690;23.322;2022-12-10T04:12:16;94294.41;;;8.95;95.73
47763;BME280;33526;42.690;23.322;2022-12-10T04:14:41;94339.94;;;9.31;95.06
47763;BME280;33526;42.690;23.322;2022-12-10T04:17:25;94328.38;;;9.23;94.84
47763;BME280;33526;42.690;23.322;2022-12-10T04:19:50;94341.97;;;9.30;94.78
47763;BME280;33526;42.690;23.322;2022-12-10T04:22:17;94177.88;;;8.21;95.24
47763;BME280;33526;42.690;23.322;2022-12-10T04:25:01;94285.72;;;8.93;96.03
47763;BME280;33526;42.690;23.322;2022-12-10T04:27:46;94340.22;;;9.18;97.20
47763;BME280;33526;42.690;23.322;2022-12-10T04:30:15;94217.84;;;8.18;97.34
47763;BME280;33526;42.690;23.322;2022-12-10T04:32:40;94263.13;;;8.52;97.66
47763;BME280;33526;42.690;23.322;2022-12-10T04:35:06;94247.06;;;8.47;97.41
47763;BME280;33526;42.690;23.322;2022-12-10T04:37:36;94276.03;;;8.64;98.46
47763;BME280;33526;42.690;23.322;2022-12-10T04:40:03;94306.69;;;8.88;98.84
47763;BME280;33526;42.690;23.322;2022-12-10T04:42:29;94342.88;;;9.12;99.37
47763;BME280;33526;42.690;23.322;2022-12-10T04:44:55;94228.34;;;8.47;99.19
47763;BME280;33526;42.690;23.322;2022-12-10T04:47:21;94262.41;;;8.66;99.79
47763;BME280;33526;42.690;23.322;2022-12-10T04:49:47;94251.31;;;8.57;100.00
47763;BME280;33526;42.690;23.322;2022-12-10T04:52:15;94210.34;;;8.24;100.00
47763;BME280;33526;42.690;23.322;2022-12-10T04:54:43;94231.78;;;8.42;100.00
47763;BME280;33526;42.690;23.322;2022-12-10T04:57:09;94194.94;;;8.14;100.00
47763;BME280;33526;42.690;23.322;2022-12-10T04:59:36;94355.22;;;9.21;100.00
47763;BME280;33526;42.690;23.322;2022-12-10T05:02:04;94381.84;;;9.22;100.00
47763;BME280;33526;42.690;23.322;2022-12-10T05:04:31;94385.31;;;9.16;100.00
47763;BME280;33526;42.690;23.322;2022-12-10T05:06:58;94182.31;;;7.79;100.00
47763;BME280;33526;42.690;23.322;2022-12-10T05:09:24;94364.28;;;8.91;100.00
47763;BME280;33526;42.690;23.322;2022-12-10T05:11:49;94293.47;;;8.50;100.00
47763;BME280;33526;42.690;23.322;2022-12-10T05:14:15;94237.31;;;8.18;100.00
47763;BME280;33526;42.690;23.322;2022-12-10T05:16:44;94226.25;;;8.09;100.00
47763;BME280;33526;42.690;23.322;2022-12-10T05:19:15;94367.88;;;9.07;100.00
47763;BME280;33526;42.690;23.322;2022-12-10T05:21:53;94176.16;;;7.75;100.00
47763;BME280;33526;42.690;23.322;2022-12-10T05:24:37;94327.97;;;8.76;100.00
47763;BME280;33526;42.690;23.322;2022-12-10T05:27:04;94313.38;;;8.82;100.00
47763;BME280;33526;42.690;23.322;2022-12-10T05:29:31;94335.25;;;8.98;100.00
47763;BME280;33526;42.690;23.322;2022-12-10T05:31:57;94232.63;;;8.24;100.00
47763;BME280;33526;42.690;23.322;2022-12-10T05:34:23;94356.69;;;8.92;100.00
47763;BME280;33526;42.690;23.322;2022-12-10T05:36:48;94243.00;;;8.23;100.00
47763;BME280;33526;42.690;23.322;2022-12-10T05:39:14;94291.13;;;8.57;100.00
47763;BME280;33526;42.690;23.322;2022-12-10T05:41:39;94274.28;;;8.52;100.00
47763;BME280;33526;42.690;23.322;2022-12-10T05:44:06;94355.41;;;8.93;100.00
47763;BME280;33526;42.690;23.322;2022-12-10T05:46:34;94298.69;;;8.57;100.00
47763;BME280;33526;42.690;23.322;2022-12-10T05:49:01;94354.78;;;8.98;100.00
47763;BME280;33526;42.690;23.322;2022-12-10T05:51:30;94380.69;;;9.13;100.00
47763;BME280;33526;42.690;23.322;2022-12-10T05:53:57;94344.59;;;8.95;100.00
47763;BME280;33526;42.690;23.322;2022-12-10T05:56:24;94281.84;;;8.51;100.00
47763;BME280;33526;42.690;23.322;2022-12-10T05:58:52;94268.72;;;8.52;100.00
47763;BME280;33526;42.690;23.322;2022-12-10T06:01:23;94194.13;;;7.98;100.00
47763;BME280;33526;42.690;23.322;2022-12-10T06:03:54;94169.13;;;7.89;100.00
47763;BME280;33526;42.690;23.322;2022-12-10T07:35:54;94184.59;;;9.07;100.00
47763;BME280;33526;42.690;23.322;2022-12-10T07:39:05;94389.00;;;10.21;100.00
47763;BME280;33526;42.690;23.322;2022-12-10T07:42:17;94361.63;;;10.25;100.00
47763;BME280;33526;42.690;23.322;2022-12-10T07:45:39;94185.88;;;9.06;100.00
47763;BME280;33526;42.690;23.322;2022-12-10T07:48:30;94257.81;;;9.62;100.00
47763;BME280;33526;42.690;23.322;2022-12-10T07:51:00;94361.81;;;10.37;100.00
47763;BME280;33526;42.690;23.322;2022-12-10T07:53:37;94154.81;;;9.13;100.00
47763;BME280;33526;42.690;23.322;2022-12-10T07:57:02;94322.72;;;10.37;100.00
47763;BME280;33526;42.690;23.322;2022-12-10T08:00:13;94155.16;;;9.51;100.00
47763;BME280;33526;42.690;23.322;2022-12-10T08:03:21;94222.91;;;10.02;100.00
47763;BME280;33526;42.690;23.322;2022-12-10T08:09:04;94134.75;;;9.45;100.00
47763;BME280;33526;42.690;23.322;2022-12-10T08:11:36;94118.69;;;9.54;99.35
47763;BME280;33526;42.690;23.322;2022-12-10T08:14:10;94202.41;;;9.90;99.87
47763;BME280;33526;42.690;23.322;2022-12-10T08:17:08;94195.72;;;9.67;100.00
47763;BME280;33526;42.690;23.322;2022-12-10T08:19:50;94288.25;;;10.25;100.00
47763;BME280;33526;42.690;23.322;2022-12-10T08:22:46;94330.34;;;10.71;100.00
47763;BME280;33526;42.690;23.322;2022-12-10T08:25:41;94226.81;;;10.10;100.00
47763;BME280;33526;42.690;23.322;2022-12-10T08:28:16;94340.47;;;10.89;100.00
47763;BME280;33526;42.690;23.322;2022-12-10T08:30:55;94174.53;;;9.75;99.68
47763;BME280;33526;42.690;23.322;2022-12-10T08:33:24;94227.25;;;10.23;99.99
47763;BME280;33526;42.690;23.322;2022-12-10T08:35:57;94202.38;;;10.05;99.16
47763;BME280;33526;42.690;23.322;2022-12-10T08:38:28;94325.88;;;11.00;98.74
47763;BME280;33526;42.690;23.322;2022-12-10T08:40:57;94123.53;;;9.39;99.50
47763;BME280;33526;42.690;23.322;2022-12-10T08:43:44;94222.66;;;10.20;100.00
47763;BME280;33526;42.690;23.322;2022-12-10T08:46:34;94226.31;;;10.11;100.00
47763;BME280;33526;42.690;23.322;2022-12-10T08:49:06;94318.53;;;10.82;100.00
47763;BME280;33526;42.690;23.322;2022-12-10T08:52:06;94237.72;;;10.43;99.75
47763;BME280;33526;42.690;23.322;2022-12-10T08:54:34;94224.22;;;10.62;99.78
47763;BME280;33526;42.690;23.322;2022-12-10T08:57:21;94175.06;;;10.50;98.66
47763;BME280;33526;42.690;23.322;2022-12-10T08:59:52;94194.91;;;10.52;97.53
47763;BME280;33526;42.690;23.322;2022-12-10T09:02:30;94270.41;;;10.99;97.77
47763;BME280;33526;42.690;23.322;2022-12-10T09:05:03;94173.66;;;10.40;97.97
47763;BME280;33526;42.690;23.322;2022-12-10T09:07:36;94275.22;;;10.98;98.72
47763;BME280;33526;42.690;23.322;2022-12-10T09:10:03;94256.59;;;10.89;98.26
47763;BME280;33526;42.690;23.322;2022-12-10T09:12:29;94165.34;;;10.45;97.52
47763;BME280;33526;42.690;23.322;2022-12-10T09:14:56;94241.97;;;10.80;98.28
47763;BME280;33526;42.690;23.322;2022-12-10T09:17:24;94093.47;;;9.84;98.30
47763;BME280;33526;42.690;23.322;2022-12-10T09:19:49;94072.53;;;9.94;98.23
47763;BME280;33526;42.690;23.322;2022-12-10T09:22:20;94143.41;;;10.38;98.05
47763;BME280;33526;42.690;23.322;2022-12-10T09:24:56;94262.22;;;11.16;100.00
47763;BME280;33526;42.690;23.322;2022-12-10T09:27:24;94271.22;;;11.25;99.58
47763;BME280;33526;42.690;23.322;2022-12-10T09:30:34;94252.22;;;11.35;99.19
47763;BME280;33526;42.690;23.322;2022-12-10T09:33:01;94149.66;;;11.00;97.85
47763;BME280;33526;42.690;23.322;2022-12-10T09:35:28;94203.47;;;11.42;96.28
47763;BME280;33526;42.690;23.322;2022-12-10T09:38:17;94118.50;;;10.87;95.89
47763;BME280;33526;42.690;23.322;2022-12-10T09:47:08;94235.66;;;12.21;93.94
47763;BME280;33526;42.690;23.322;2022-12-10T09:52:45;94234.19;;;12.32;93.04
47763;BME280;33526;42.690;23.322;2022-12-10T09:55:35;94149.16;;;11.97;91.76
47763;BME280;33526;42.690;23.322;2022-12-10T09:58:05;94077.34;;;11.57;90.51
47763;BME280;33526;42.690;23.322;2022-12-10T10:01:02;94236.16;;;12.69;89.94
47763;BME280;33526;42.690;23.322;2022-12-10T10:03:38;94237.00;;;12.86;88.53
47763;BME280;33526;42.690;23.322;2022-12-10T10:06:23;94228.59;;;12.92;88.88
47763;BME280;33526;42.690;23.322;2022-12-10T10:09:01;94136.53;;;12.19;89.55
47763;BME280;33526;42.690;23.322;2022-12-10T10:11:32;94136.47;;;12.08;89.99
47763;BME280;33526;42.690;23.322;2022-12-10T10:14:12;94027.53;;;11.23;90.48
47763;BME280;33526;42.690;23.322;2022-12-10T10:16:54;94094.94;;;11.63;91.23
47763;BME280;33526;42.690;23.322;2022-12-10T10:19:25;94229.31;;;12.81;90.46
47763;BME280;33526;42.690;23.322;2022-12-10T10:22:12;94222.25;;;13.03;87.32
47763;BME280;33526;42.690;23.322;2022-12-10T10:25:12;94049.13;;;12.09;87.12
47763;BME280;33526;42.690;23.322;2022-12-10T10:27:48;94035.91;;;12.15;86.00
47763;BME280;33526;42.690;23.322;2022-12-10T10:30:43;94001.53;;;12.15;86.20
47763;BME280;33526;42.690;23.322;2022-12-10T10:37:15;94159.06;;;13.81;82.70
47763;BME280;33526;42.690;23.322;2022-12-10T10:40:08;93980.97;;;12.57;82.95
47763;BME280;33526;42.690;23.322;2022-12-10T10:43:24;94134.06;;;13.71;82.70
47763;BME280;33526;42.690;23.322;2022-12-10T10:50:12;94174.25;;;14.47;78.45
47763;BME280;33526;42.690;23.322;2022-12-10T10:53:00;94166.09;;;14.38;79.33
47763;BME280;33526;42.690;23.322;2022-12-10T10:55:41;94100.03;;;14.03;80.05
47763;BME280;33526;42.690;23.322;2022-12-10T11:05:39;93967.97;;;13.11;79.55
47763;BME280;33526;42.690;23.322;2022-12-10T11:11:17;93935.03;;;13.17;78.80
47763;BME280;33526;42.690;23.322;2022-12-10T11:14:38;93922.56;;;12.95;79.97
47763;BME280;33526;42.690;23.322;2022-12-10T11:17:25;94005.94;;;13.46;80.58
47763;BME280;33526;42.690;23.322;2022-12-10T11:20:20;94094.13;;;14.12;82.36
47763;BME280;33526;42.690;23.322;2022-12-10T11:23:08;93880.56;;;12.50;82.83
47763;BME280;33526;42.690;23.322;2022-12-10T11:32:21;94079.03;;;14.15;82.58
47763;BME280;33526;42.690;23.322;2022-12-10T11:35:34;93927.44;;;12.89;83.61
47763;BME280;33526;42.690;23.322;2022-12-10T11:42:14;94036.56;;;13.44;84.01
47763;BME280;33526;42.690;23.322;2022-12-10T11:45:25;94036.28;;;13.64;82.87
47763;BME280;33526;42.690;23.322;2022-12-10T12:02:45;94058.38;;;14.07;82.45
47763;BME280;33526;42.690;23.322;2022-12-10T12:11:32;94077.22;;;14.24;82.25
47763;BME280;33526;42.690;23.322;2022-12-10T12:34:59;94015.91;;;14.17;82.99
47763;BME280;33526;42.690;23.322;2022-12-10T12:38:19;93872.22;;;13.43;82.35
47763;BME280;33526;42.690;23.322;2022-12-10T12:41:36;93866.13;;;13.38;81.15
47763;BME280;33526;42.690;23.322;2022-12-10T12:45:14;93937.09;;;13.98;81.64
47763;BME280;33526;42.690;23.322;2022-12-10T12:48:17;93989.84;;;14.22;81.20
47763;BME280;33526;42.690;23.322;2022-12-10T12:51:22;93906.09;;;13.62;82.16
47763;BME280;33526;42.690;23.322;2022-12-10T12:54:24;93913.72;;;13.72;82.48
47763;BME280;33526;42.690;23.322;2022-12-10T12:57:20;93923.88;;;13.81;81.07
47763;BME280;33526;42.690;23.322;2022-12-10T13:00:14;93854.91;;;13.27;82.19
47763;BME280;33526;42.690;23.322;2022-12-10T13:06:32;93977.38;;;14.06;82.19
47763;BME280;33526;42.690;23.322;2022-12-10T13:09:42;93979.13;;;14.14;82.53
47763;BME280;33526;42.690;23.322;2022-12-10T13:13:38;93799.16;;;12.90;83.29
47763;BME280;33526;42.690;23.322;2022-12-10T13:15:52;93976.03;;;14.24;81.33
47763;BME280;33526;42.690;23.322;2022-12-10T13:18:37;93854.91;;;13.27;82.22
47763;BME280;33526;42.690;23.322;2022-12-10T13:22:04;93871.22;;;13.23;83.32
47763;BME280;33526;42.690;23.322;2022-12-10T13:33:19;93848.78;;;13.34;82.53
47763;BME280;33526;42.690;23.322;2022-12-10T13:36:36;93801.94;;;12.95;82.48
47763;BME280;33526;42.690;23.322;2022-12-10T13:39:20;93933.00;;;13.93;82.42
47763;BME280;33526;42.690;23.322;2022-12-10T13:42:30;93724.84;;;12.60;82.55
47763;BME280;33526;42.690;23.322;2022-12-10T13:47:55;93732.72;;;12.56;83.10
47763;BME280;33526;42.690;23.322;2022-12-10T13:53:44;93769.03;;;13.01;82.56
47763;BME280;33526;42.690;23.322;2022-12-10T13:56:34;93827.88;;;13.24;83.63
47763;BME280;33526;42.690;23.322;2022-12-10T17:25:25;93747.09;;;11.91;95.28
47763;BME280;33526;42.690;23.322;2022-12-10T21:12:52;93396.31;;;11.26;99.05
47763;BME280;33526;42.690;23.322;2022-12-10T21:15:50;93266.94;;;10.50;98.96
47763;BME280;33526;42.690;23.322;2022-12-10T23:08:23;93087.88;;;10.48;100.00
47763;BME280;33526;42.690;23.322;2022-12-10T23:10:50;93102.50;;;10.65;100.00
47763;BME280;33526;42.690;23.322;2022-12-10T23:13:44;92943.31;;;9.71;100.00
47763;BME280;33526;42.690;23.322;2022-12-10T23:16:16;92997.66;;;10.11;100.00
47763;BME280;33526;42.690;23.322;2022-12-10T23:19:02;93022.09;;;10.00;100.00
47763;BME280;33526;42.690;23.322;2022-12-10T23:21:51;93006.88;;;9.95;100.00
47763;BME280;33526;42.690;23.322;2022-12-10T23:24:17;92975.03;;;9.68;100.00
47763;BME280;33526;42.690;23.322;2022-12-10T23:26:42;92961.06;;;9.73;100.00
47763;BME280;33526;42.690;23.322;2022-12-10T23:29:08;92947.31;;;9.81;100.00
47763;BME280;33526;42.690;23.322;2022-12-10T23:31:34;92921.44;;;9.81;100.00
47763;BME280;33526;42.690;23.322;2022-12-10T23:34:00;92900.47;;;9.63;100.00
47763;BME280;33526;42.690;23.322;2022-12-10T23:36:25;92899.63;;;9.32;100.00
47763;BME280;33526;42.690;23.322;2022-12-10T23:38:56;93036.16;;;10.36;100.00
47763;BME280;33526;42.690;23.322;2022-12-10T23:41:23;93040.31;;;10.59;100.00
47763;BME280;33526;42.690;23.322;2022-12-10T23:43:48;92915.13;;;9.80;100.00
47763;BME280;33526;42.690;23.322;2022-12-10T23:46:14;92987.38;;;10.37;100.00
47763;BME280;33526;42.690;23.322;2022-12-10T23:48:39;92984.34;;;10.35;100.00
47763;BME280;33526;42.690;23.322;2022-12-10T23:51:05;93022.22;;;10.71;100.00
47763;BME280;33526;42.690;23.322;2022-12-10T23:53:30;93037.59;;;10.84;100.00
47763;BME280;33526;42.690;23.322;2022-12-10T23:55:57;93032.31;;;10.75;100.00
47763;BME280;33526;42.690;23.322;2022-12-10T23:58:23;93030.25;;;10.81;100.00
